Time;durP1;ratioP1;P1;durP2;ratioP2;P2;SDS_P1;SDS_P2;PMS_P1;PMS_P2;Temp;Humidity;BMP_temperature;BMP_pressure;BME280_temperature;BME280_humidity;BME280_pressure;Samples;Min_cycle;Max_cycle;Signal;HPM_P1;HPM_P2
2023/11/22 00:01:44;;;;;;;9.00;8.10;;;7.70;79.50;;;;;;5029769;28;20273;-57
2023/11/22 00:04:10;;;;;;;9.47;8.47;;;7.60;78.80;;;;;;5027631;28;20286;-55
2023/11/22 00:06:37;;;;;;;10.67;8.30;;;7.60;79.40;;;;;;5034987;28;20279;-56
2023/11/22 00:09:04;;;;;;;10.27;8.57;;;7.50;79.90;;;;;;5034299;28;20689;-57
2023/11/22 00:11:31;;;;;;;10.93;9.27;;;7.60;79.60;;;;;;5033059;28;20634;-56
2023/11/22 00:13:57;;;;;;;10.83;9.07;;;7.60;79.90;;;;;;5030171;28;20592;-53
2023/11/22 00:16:23;;;;;;;10.47;8.77;;;7.60;80.10;;;;;;5032402;28;20320;-58
2023/11/22 00:18:50;;;;;;;10.20;9.00;;;7.60;79.30;;;;;;5034710;28;20299;-55
2023/11/22 00:21:16;;;;;;;10.30;8.43;;;7.50;79.20;;;;;;5033041;28;20201;-57
2023/11/22 00:23:43;;;;;;;10.73;9.07;;;7.60;78.80;;;;;;5026541;28;20218;-55
2023/11/22 00:26:11;;;;;;;9.60;8.70;;;7.60;78.90;;;;;;5025257;28;20227;-56
2023/11/22 00:28:37;;;;;;;11.47;9.00;;;7.60;79.30;;;;;;5030160;28;20629;-55
2023/11/22 00:31:03;;;;;;;10.43;8.77;;;7.60;79.20;;;;;;5032610;28;20303;-56
2023/11/22 00:33:31;;;;;;;10.33;8.90;;;7.70;78.50;;;;;;5034362;28;20204;-54
2023/11/22 00:35:58;;;;;;;9.80;8.43;;;7.60;78.30;;;;;;5031653;28;20241;-57
2023/11/22 00:38:24;;;;;;;10.30;8.70;;;7.60;78.10;;;;;;5032752;28;20260;-57
2023/11/22 00:40:51;;;;;;;11.77;9.43;;;7.60;78.70;;;;;;5032641;28;20208;-57
2023/11/22 00:43:19;;;;;;;9.83;8.70;;;7.60;78.70;;;;;;5032012;28;20632;-57
2023/11/22 00:45:45;;;;;;;10.20;8.40;;;7.40;78.20;;;;;;5032533;28;20270;-57
2023/11/22 00:48:12;;;;;;;10.90;8.53;;;7.50;78.90;;;;;;5033836;28;20718;-58
2023/11/22 00:50:38;;;;;;;9.40;8.33;;;7.50;79.00;;;;;;5033619;28;20315;-54
2023/11/22 00:53:05;;;;;;;11.37;8.30;;;7.50;78.60;;;;;;5025337;28;20213;-57
2023/11/22 00:55:31;;;;;;;11.67;8.53;;;7.40;77.90;;;;;;5034081;28;20311;-58
2023/11/22 00:58:03;;;;;;;12.67;9.43;;;7.40;77.60;;;;;;5031964;28;20204;-57
2023/11/22 01:00:30;;;;;;;11.60;9.30;;;7.40;78.30;;;;;;5032591;28;20208;-57
2023/11/22 01:02:56;;;;;;;12.47;8.97;;;7.30;77.50;;;;;;5029856;28;20708;-53
2023/11/22 01:05:24;;;;;;;9.10;8.20;;;7.40;78.40;;;;;;5028780;28;20905;-53
2023/11/22 01:07:50;;;;;;;10.30;8.00;;;7.40;77.70;;;;;;5031060;28;20259;-54
2023/11/22 01:10:17;;;;;;;10.30;8.00;;;7.30;76.60;;;;;;5026881;28;21069;-54
2023/11/22 01:12:44;;;;;;;9.93;8.23;;;7.30;76.90;;;;;;5028307;28;20230;-55
2023/11/22 01:15:10;;;;;;;9.93;8.30;;;7.30;76.50;;;;;;5031849;28;20243;-52
2023/11/22 01:17:36;;;;;;;12.33;9.00;;;7.30;76.90;;;;;;5023680;28;20208;-55
2023/11/22 01:20:03;;;;;;;9.77;8.77;;;7.40;77.00;;;;;;5031501;28;20220;-55
2023/11/22 01:22:30;;;;;;;9.50;8.43;;;7.40;75.70;;;;;;5031706;28;20788;-58
2023/11/22 01:24:56;;;;;;;11.00;9.30;;;7.40;76.60;;;;;;5026877;28;20708;-53
2023/11/22 01:27:23;;;;;;;9.37;8.47;;;7.30;76.70;;;;;;5029759;28;20258;-54
2023/11/22 01:29:50;;;;;;;9.53;7.70;;;7.20;77.30;;;;;;5025289;28;20597;-56
2023/11/22 01:32:18;;;;;;;10.53;8.97;;;7.30;76.70;;;;;;5029057;28;20253;-54
2023/11/22 01:34:45;;;;;;;10.17;8.40;;;7.30;76.60;;;;;;5029091;28;20270;-53
2023/11/22 01:37:12;;;;;;;9.53;8.50;;;7.30;76.70;;;;;;5029341;28;20234;-55
2023/11/22 01:39:39;;;;;;;9.27;8.37;;;7.30;77.00;;;;;;5032003;28;20220;-56
2023/11/22 01:42:06;;;;;;;9.80;8.37;;;7.40;76.20;;;;;;5023908;28;20207;-57
2023/11/22 01:44:33;;;;;;;10.30;8.57;;;7.40;74.80;;;;;;5032215;28;20592;-54
2023/11/22 01:46:59;;;;;;;9.47;8.30;;;7.40;76.20;;;;;;5024547;28;20234;-57
2023/11/22 01:49:26;;;;;;;10.17;8.87;;;7.30;76.80;;;;;;5033088;28;20287;-56
2023/11/22 01:51:52;;;;;;;10.40;8.30;;;7.20;76.70;;;;;;5032279;28;20294;-54
2023/11/22 01:54:19;;;;;;;9.83;8.73;;;7.20;77.00;;;;;;5020426;28;20209;-55
2023/11/22 01:56:45;;;;;;;10.23;8.30;;;7.20;77.40;;;;;;5029175;28;20220;-53
2023/11/22 01:59:11;;;;;;;10.50;8.10;;;7.20;77.80;;;;;;5032144;28;20236;-56
2023/11/22 02:01:38;;;;;;;10.27;7.97;;;7.30;77.80;;;;;;5026782;28;20226;-55
2023/11/22 02:04:04;;;;;;;8.47;6.77;;;7.20;77.20;;;;;;5024209;28;20561;-53
2023/11/22 02:06:31;;;;;;;8.17;6.33;;;7.10;76.90;;;;;;5025688;28;20222;-57
2023/11/22 02:08:57;;;;;;;6.90;6.17;;;6.80;74.80;;;;;;5024871;28;20225;-56
2023/11/22 02:11:24;;;;;;;5.90;5.40;;;6.50;72.40;;;;;;5030195;28;20289;-56
2023/11/22 02:13:50;;;;;;;5.97;5.47;;;6.40;72.60;;;;;;5026507;28;20298;-58
2023/11/22 02:16:17;;;;;;;4.33;4.03;;;6.40;70.70;;;;;;5026465;28;20227;-57
2023/11/22 02:18:43;;;;;;;4.07;3.77;;;6.20;68.60;;;;;;5034005;28;20678;-57
2023/11/22 02:21:10;;;;;;;3.80;3.50;;;6.10;68.40;;;;;;5032807;28;20252;-56
2023/11/22 02:23:37;;;;;;;3.50;3.20;;;6.00;67.60;;;;;;5031903;28;20244;-53
2023/11/22 02:26:03;;;;;;;3.37;3.17;;;6.00;65.70;;;;;;5025375;28;20313;-55
2023/11/22 02:28:30;;;;;;;3.40;3.20;;;6.00;65.20;;;;;;5029794;28;20209;-55
2023/11/22 02:30:56;;;;;;;3.53;3.23;;;6.00;65.10;;;;;;5030606;28;20221;-53
2023/11/22 02:33:23;;;;;;;3.53;3.33;;;5.80;65.40;;;;;;5030510;28;20810;-55
2023/11/22 02:35:50;;;;;;;3.37;3.17;;;5.70;64.20;;;;;;5030084;28;20238;-53
2023/11/22 02:38:18;;;;;;;3.70;2.90;;;5.60;64.90;;;;;;5029673;28;20210;-57
2023/11/22 02:40:44;;;;;;;3.30;3.10;;;5.60;65.10;;;;;;5029032;28;20214;-56
2023/11/22 02:43:11;;;;;;;4.13;3.03;;;5.50;65.80;;;;;;5026302;28;20214;-55
2023/11/22 02:45:38;;;;;;;3.33;3.13;;;5.50;65.70;;;;;;5029245;28;20250;-55
2023/11/22 02:48:09;;;;;;;3.20;3.00;;;5.40;65.20;;;;;;5030548;28;20221;-57
2023/11/22 02:50:35;;;;;;;4.00;3.60;;;5.30;65.90;;;;;;5030977;28;20238;-53
2023/11/22 02:53:03;;;;;;;3.40;3.20;;;5.20;68.20;;;;;;5025908;28;20219;-55
2023/11/22 02:55:29;;;;;;;3.47;3.27;;;5.20;68.00;;;;;;5016191;28;20226;-53
2023/11/22 02:57:55;;;;;;;4.00;3.70;;;5.20;68.20;;;;;;5020345;28;20289;-56
2023/11/22 03:00:22;;;;;;;4.20;3.43;;;5.20;68.30;;;;;;5025199;28;20217;-56
2023/11/22 03:02:53;;;;;;;3.10;2.90;;;5.10;69.30;;;;;;5030986;28;20213;-55
2023/11/22 03:05:20;;;;;;;3.53;3.33;;;5.30;72.30;;;;;;5031425;28;20223;-53
2023/11/22 03:07:46;;;;;;;3.80;3.50;;;5.20;70.60;;;;;;5029032;28;20231;-56
2023/11/22 03:10:13;;;;;;;3.27;3.03;;;5.30;70.50;;;;;;5027751;28;20290;-55
2023/11/22 03:12:39;;;;;;;3.43;3.20;;;5.20;70.20;;;;;;5029100;28;20211;-57
2023/11/22 03:15:05;;;;;;;3.87;3.47;;;5.00;70.70;;;;;;5030186;28;20237;-52
2023/11/22 03:17:32;;;;;;;3.47;3.20;;;4.60;63.10;;;;;;5028773;28;20672;-54
2023/11/22 03:20:00;;;;;;;3.50;3.30;;;4.70;63.30;;;;;;5029750;28;20210;-55
2023/11/22 03:22:27;;;;;;;3.90;3.60;;;4.70;63.30;;;;;;5029689;28;20253;-56
2023/11/22 03:24:54;;;;;;;3.30;3.03;;;4.90;63.50;;;;;;5017679;28;20229;-56
2023/11/22 03:27:21;;;;;;;3.60;3.30;;;4.80;63.40;;;;;;5029590;28;20212;-53
2023/11/22 03:29:47;;;;;;;3.73;3.43;;;4.80;63.50;;;;;;5029547;28;20210;-56
2023/11/22 03:32:13;;;;;;;4.13;3.80;;;4.80;63.70;;;;;;5021115;28;20217;-56
2023/11/22 03:34:40;;;;;;;4.13;3.83;;;4.70;63.80;;;;;;5028751;28;20236;-53
2023/11/22 03:37:07;;;;;;;4.37;3.97;;;4.60;64.30;;;;;;5030611;28;20207;-55
2023/11/22 03:39:33;;;;;;;4.30;4.00;;;4.70;64.60;;;;;;5030224;28;20234;-57
2023/11/22 03:42:00;;;;;;;4.60;4.20;;;4.70;63.80;;;;;;5029030;28;20281;-56
2023/11/22 03:44:26;;;;;;;4.10;3.80;;;4.70;63.40;;;;;;5030070;28;20279;-54
2023/11/22 03:46:52;;;;;;;3.90;3.60;;;4.70;63.30;;;;;;5028350;28;20198;-55
2023/11/22 03:49:19;;;;;;;4.07;3.77;;;4.90;63.50;;;;;;5027748;28;20214;-56
2023/11/22 03:51:46;;;;;;;4.37;4.03;;;4.80;63.70;;;;;;5022968;28;20233;-56
2023/11/22 03:54:12;;;;;;;4.23;3.90;;;4.70;63.70;;;;;;5025130;28;20203;-57
2023/11/22 03:56:39;;;;;;;4.33;4.03;;;4.80;64.90;;;;;;5013694;28;20234;-56
2023/11/22 03:59:05;;;;;;;4.33;3.93;;;4.70;64.80;;;;;;5029407;28;20210;-54
2023/11/22 04:01:31;;;;;;;5.17;3.63;;;4.80;64.00;;;;;;5021136;28;20211;-58
2023/11/22 04:03:58;;;;;;;4.30;3.77;;;4.90;64.40;;;;;;5016989;28;20213;-55
2023/11/22 04:06:24;;;;;;;4.20;3.90;;;4.80;64.50;;;;;;5022836;28;20260;-56
2023/11/22 04:08:53;;;;;;;3.90;3.60;;;4.80;64.80;;;;;;5021586;28;20688;-57
2023/11/22 04:11:19;;;;;;;4.00;3.60;;;4.80;64.60;;;;;;5028431;28;20302;-58
2023/11/22 04:13:45;;;;;;;4.00;3.70;;;4.90;64.10;;;;;;5030376;28;20218;-57
2023/11/22 04:16:12;;;;;;;3.90;3.60;;;4.80;63.40;;;;;;5024411;28;20237;-57
2023/11/22 04:18:39;;;;;;;3.80;3.50;;;4.80;65.20;;;;;;5016451;28;20261;-58
2023/11/22 04:21:05;;;;;;;3.57;3.27;;;4.80;65.00;;;;;;5029775;28;20228;-55
2023/11/22 04:23:32;;;;;;;3.60;3.30;;;4.90;64.90;;;;;;5029981;28;20249;-56
2023/11/22 04:25:59;;;;;;;4.13;3.80;;;4.80;63.90;;;;;;5027373;28;20237;-55
2023/11/22 04:28:25;;;;;;;4.00;3.70;;;4.70;64.20;;;;;;5020186;28;20203;-53
2023/11/22 04:30:52;;;;;;;3.80;3.50;;;4.80;63.30;;;;;;5029707;28;20207;-58
2023/11/22 04:33:18;;;;;;;4.37;3.90;;;4.80;64.00;;;;;;5028884;28;20198;-56
2023/11/22 04:35:46;;;;;;;3.93;3.63;;;4.80;63.80;;;;;;5034183;28;20281;-56
2023/11/22 04:38:12;;;;;;;4.27;3.87;;;4.90;63.50;;;;;;5030241;28;20206;-58
2023/11/22 04:40:39;;;;;;;3.80;3.50;;;4.70;62.80;;;;;;5033445;28;20294;-53
2023/11/22 04:43:05;;;;;;;3.63;3.33;;;4.60;62.80;;;;;;5033791;28;20289;-57
2023/11/22 04:45:32;;;;;;;4.20;3.63;;;4.60;62.50;;;;;;5031629;28;20564;-57
2023/11/22 04:47:58;;;;;;;4.40;4.00;;;4.70;61.80;;;;;;5026765;28;20306;-58
2023/11/22 04:50:25;;;;;;;3.90;3.57;;;4.70;61.50;;;;;;5033610;28;20203;-57
2023/11/22 04:52:51;;;;;;;3.70;3.40;;;4.60;62.00;;;;;;5025704;28;20210;-58
2023/11/22 04:55:18;;;;;;;3.97;3.67;;;4.70;61.50;;;;;;5028702;28;20241;-55
2023/11/22 04:57:45;;;;;;;3.50;3.30;;;4.50;61.00;;;;;;5030308;28;20225;-55
2023/11/22 05:00:11;;;;;;;4.00;3.70;;;4.60;61.90;;;;;;5030885;28;20219;-56
2023/11/22 05:02:38;;;;;;;3.80;3.50;;;4.70;61.80;;;;;;5024967;28;20772;-55
2023/11/22 05:05:04;;;;;;;3.50;3.20;;;4.70;61.50;;;;;;5033010;28;20222;-57
2023/11/22 05:07:31;;;;;;;3.90;3.60;;;4.70;61.10;;;;;;5031286;28;20302;-56
2023/11/22 05:09:57;;;;;;;4.17;3.83;;;4.60;62.10;;;;;;5026007;28;20682;-55
2023/11/22 05:12:24;;;;;;;3.83;3.53;;;4.70;62.70;;;;;;5033584;28;20242;-56
2023/11/22 05:14:50;;;;;;;4.20;3.90;;;4.70;62.40;;;;;;5027304;28;20337;-55
2023/11/22 05:17:17;;;;;;;4.03;3.73;;;4.80;63.40;;;;;;5018641;28;20322;-55
2023/11/22 05:19:43;;;;;;;4.20;3.80;;;4.70;62.40;;;;;;5020872;28;20211;-54
2023/11/22 05:22:10;;;;;;;4.17;3.67;;;4.70;63.30;;;;;;5031736;28;20295;-53
2023/11/22 05:24:38;;;;;;;4.30;3.97;;;4.80;63.40;;;;;;5032832;28;20226;-54
2023/11/22 05:27:05;;;;;;;4.70;4.30;;;4.70;62.70;;;;;;5013372;28;20207;-57
2023/11/22 05:29:32;;;;;;;4.47;4.07;;;4.70;63.20;;;;;;5032398;28;20287;-54
2023/11/22 05:31:59;;;;;;;4.43;4.07;;;4.70;63.30;;;;;;5029438;28;20301;-52
2023/11/22 05:34:25;;;;;;;3.90;3.60;;;4.70;63.30;;;;;;5032558;28;20214;-53
2023/11/22 05:36:52;;;;;;;3.73;3.43;;;4.70;63.30;;;;;;5032418;28;20223;-52
2023/11/22 05:39:18;;;;;;;3.73;3.50;;;4.60;61.90;;;;;;5030191;28;20234;-52
2023/11/22 05:41:45;;;;;;;3.30;3.10;;;4.60;61.70;;;;;;5022719;28;20223;-54
2023/11/22 05:44:11;;;;;;;3.83;3.53;;;4.60;60.60;;;;;;5026797;28;20213;-56
2023/11/22 05:46:38;;;;;;;3.53;3.23;;;4.60;60.60;;;;;;5022194;28;20314;-55
2023/11/22 05:49:05;;;;;;;3.40;3.20;;;4.50;61.50;;;;;;5030206;28;20285;-56
2023/11/22 05:51:31;;;;;;;3.30;3.10;;;4.50;60.60;;;;;;5018081;28;20297;-57
2023/11/22 05:53:57;;;;;;;3.77;3.47;;;4.40;60.70;;;;;;5021017;28;20207;-55
2023/11/22 05:56:24;;;;;;;3.50;3.20;;;4.50;60.80;;;;;;5032909;28;20266;-57
2023/11/22 05:58:51;;;;;;;4.10;3.70;;;4.40;60.70;;;;;;5024615;28;20321;-57
2023/11/22 06:01:17;;;;;;;4.33;3.90;;;4.40;61.60;;;;;;5031528;28;20302;-57
2023/11/22 06:03:43;;;;;;;3.87;3.57;;;4.60;61.50;;;;;;5026176;28;20306;-58
2023/11/22 06:06:10;;;;;;;3.53;3.23;;;4.40;60.70;;;;;;5026897;28;20661;-55
2023/11/22 06:08:37;;;;;;;3.40;3.20;;;4.60;62.10;;;;;;5030430;28;20581;-54
2023/11/22 06:11:03;;;;;;;3.60;3.40;;;4.70;61.10;;;;;;5030271;28;20264;-55
2023/11/22 06:13:30;;;;;;;3.90;3.60;;;4.70;61.10;;;;;;5028427;28;20203;-52
2023/11/22 06:15:57;;;;;;;3.37;3.10;;;4.70;61.10;;;;;;5021462;28;20261;-57
2023/11/22 06:18:28;;;;;;;3.57;3.20;;;4.70;61.10;;;;;;5029129;28;20208;-56
2023/11/22 06:20:55;;;;;;;3.83;3.53;;;4.60;60.80;;;;;;5023052;28;20210;-57
2023/11/22 06:23:21;;;;;;;3.70;3.40;;;4.60;60.20;;;;;;5031203;28;20207;-54
2023/11/22 06:25:48;;;;;;;4.00;3.70;;;4.60;60.70;;;;;;5026972;28;20226;-55
2023/11/22 06:28:15;;;;;;;3.70;3.50;;;4.60;61.20;;;;;;5032134;28;20211;-57
2023/11/22 06:30:42;;;;;;;4.13;3.77;;;4.60;60.80;;;;;;5027253;28;20214;-53
2023/11/22 06:33:08;;;;;;;4.20;3.80;;;4.50;60.80;;;;;;5022345;28;20213;-53
2023/11/22 06:35:36;;;;;;;5.80;4.87;;;4.60;61.70;;;;;;5027234;28;20233;-54
2023/11/22 06:38:03;;;;;;;5.23;4.70;;;4.50;60.90;;;;;;5027474;28;20229;-57
2023/11/22 06:40:30;;;;;;;5.70;5.20;;;4.40;61.00;;;;;;5031194;28;20552;-55
2023/11/22 06:42:57;;;;;;;6.00;5.50;;;4.40;61.70;;;;;;5019905;28;20210;-56
2023/11/22 06:45:23;;;;;;;6.20;5.60;;;4.50;61.00;;;;;;5029589;28;20222;-55
2023/11/22 06:47:50;;;;;;;5.30;4.67;;;4.50;61.00;;;;;;5023550;28;20674;-57
2023/11/22 06:50:16;;;;;;;5.13;4.63;;;4.50;61.20;;;;;;5024904;28;20207;-56
2023/11/22 06:52:43;;;;;;;5.50;5.07;;;4.50;60.90;;;;;;5027923;28;20213;-55
2023/11/22 06:55:09;;;;;;;5.87;5.37;;;4.50;61.70;;;;;;5015976;28;20593;-57
2023/11/22 06:57:36;;;;;;;4.90;4.47;;;4.50;61.20;;;;;;5027690;28;20696;-57
2023/11/22 07:00:04;;;;;;;6.20;5.17;;;4.40;61.60;;;;;;5026043;28;20680;-57
2023/11/22 07:02:31;;;;;;;5.20;4.80;;;4.50;61.60;;;;;;5021652;28;20211;-57
2023/11/22 07:04:58;;;;;;;5.63;5.13;;;4.50;61.00;;;;;;5026461;28;20230;-57
2023/11/22 07:07:25;;;;;;;5.40;4.97;;;4.50;60.90;;;;;;5022798;28;20194;-55
2023/11/22 07:09:51;;;;;;;4.73;4.30;;;4.50;61.60;;;;;;5028177;28;20302;-56
2023/11/22 07:12:19;;;;;;;5.13;4.73;;;4.50;61.50;;;;;;5026898;28;20213;-55
2023/11/22 07:14:45;;;;;;;5.60;5.10;;;4.40;61.50;;;;;;5023949;28;20971;-52
2023/11/22 07:17:12;;;;;;;5.90;5.40;;;4.40;62.20;;;;;;5030919;28;20298;-56
2023/11/22 07:19:42;;;;;;;4.90;4.43;;;4.40;62.50;;;;;;5021948;28;20217;-57
2023/11/22 07:22:15;;;;;;;5.97;4.90;;;4.50;62.70;;;;;;5024778;28;20242;-54
2023/11/22 07:24:43;;;;;;;5.27;4.87;;;4.40;61.70;;;;;;5027384;28;20229;-58
2023/11/22 07:27:11;;;;;;;5.33;4.83;;;4.40;61.80;;;;;;5028831;28;20230;-53
2023/11/22 07:29:38;;;;;;;5.60;5.10;;;4.30;62.40;;;;;;5025214;28;20305;-58
2023/11/22 07:32:04;;;;;;;5.80;5.10;;;4.40;63.00;;;;;;5023846;28;20232;-54
2023/11/22 07:34:31;;;;;;;6.07;5.57;;;4.50;62.00;;;;;;5018820;28;20285;-56
2023/11/22 07:36:57;;;;;;;6.03;5.53;;;4.50;62.20;;;;;;5029791;28;20671;-56
2023/11/22 07:39:27;;;;;;;5.90;5.13;;;4.50;61.70;;;;;;5027991;28;20210;-57
2023/11/22 07:41:55;;;;;;;5.80;5.30;;;4.50;61.50;;;;;;5010926;28;20209;-53
2023/11/22 07:44:21;;;;;;;5.67;5.17;;;4.40;61.40;;;;;;5004989;28;20660;-56
2023/11/22 07:46:48;;;;;;;5.60;5.07;;;4.50;61.90;;;;;;5023053;28;20207;-55
2023/11/22 07:49:14;;;;;;;6.37;5.43;;;4.50;61.70;;;;;;5018074;28;20206;-54
2023/11/22 07:51:41;;;;;;;5.87;5.27;;;4.40;61.60;;;;;;5030164;28;20753;-57
2023/11/22 07:54:08;;;;;;;5.70;5.20;;;4.40;61.70;;;;;;5029841;28;20213;-57
2023/11/22 07:56:35;;;;;;;6.50;5.90;;;4.50;61.70;;;;;;5023055;28;20665;-53
2023/11/22 07:59:02;;;;;;;5.87;5.27;;;4.30;61.40;;;;;;5005144;28;20214;-55
2023/11/22 08:01:31;;;;;;;5.73;5.17;;;4.30;62.40;;;;;;5024221;28;20207;-56
2023/11/22 08:03:58;;;;;;;6.20;5.60;;;4.30;61.80;;;;;;5021128;28;20206;-54
2023/11/22 08:06:26;;;;;;;6.87;6.17;;;4.40;62.10;;;;;;5020651;28;20219;-54
2023/11/22 08:08:53;;;;;;;7.50;6.10;;;4.40;61.80;;;;;;5021586;28;20263;-55
2023/11/22 08:11:20;;;;;;;8.20;6.07;;;4.30;62.00;;;;;;5017300;28;20632;-54
2023/11/22 08:13:47;;;;;;;6.50;5.90;;;4.40;62.50;;;;;;5023886;28;20293;-52
2023/11/22 08:16:14;;;;;;;6.30;5.70;;;4.20;61.80;;;;;;5028767;28;20248;-52
2023/11/22 08:18:42;;;;;;;6.40;5.80;;;4.10;62.80;;;;;;5021571;28;20304;-52
2023/11/22 08:21:09;;;;;;;7.13;5.73;;;4.20;62.90;;;;;;5027115;28;20217;-50
2023/11/22 08:23:35;;;;;;;7.20;6.33;;;4.20;62.80;;;;;;5030498;28;20210;-51
2023/11/22 08:26:02;;;;;;;7.87;5.73;;;4.10;62.80;;;;;;5021514;28;20313;-50
2023/11/22 08:28:29;;;;;;;6.87;6.00;;;4.20;62.90;;;;;;5025649;28;20225;-54
2023/11/22 08:30:55;;;;;;;6.03;5.43;;;4.20;62.80;;;;;;5025500;28;20580;-52
2023/11/22 08:33:22;;;;;;;7.00;6.30;;;4.20;62.20;;;;;;5023647;28;20209;-54
2023/11/22 08:35:51;;;;;;;6.07;5.57;;;4.30;62.50;;;;;;5031256;28;20241;-52
2023/11/22 08:38:17;;;;;;;5.80;5.13;;;4.30;61.60;;;;;;5027523;28;20309;-51
2023/11/22 08:40:43;;;;;;;6.00;5.50;;;4.10;61.20;;;;;;5024593;28;20213;-54
2023/11/22 08:43:10;;;;;;;5.77;5.37;;;3.90;62.50;;;;;;5003123;28;20202;-52
2023/11/22 08:45:36;;;;;;;7.13;6.43;;;3.90;62.20;;;;;;5010236;28;20242;-53
2023/11/22 08:48:03;;;;;;;5.77;5.30;;;4.00;61.30;;;;;;5028073;28;20268;-52
2023/11/22 08:50:29;;;;;;;5.73;5.20;;;4.10;61.20;;;;;;5020750;28;20222;-53
2023/11/22 08:52:57;;;;;;;7.50;5.20;;;4.00;61.60;;;;;;5018609;28;20306;-56
2023/11/22 08:55:24;;;;;;;6.57;5.87;;;4.10;62.80;;;;;;5033157;28;20244;-56
2023/11/22 08:57:51;;;;;;;6.53;5.93;;;4.00;62.70;;;;;;5026237;28;20319;-52
2023/11/22 09:00:22;;;;;;;6.17;5.57;;;4.10;63.60;;;;;;5020335;28;20215;-52
2023/11/22 09:02:49;;;;;;;6.10;5.50;;;4.20;64.30;;;;;;5021774;28;20219;-52
2023/11/22 09:05:16;;;;;;;6.60;6.00;;;4.10;64.30;;;;;;5018489;28;20653;-56
2023/11/22 09:07:44;;;;;;;6.50;5.80;;;4.20;65.20;;;;;;5028101;28;20268;-55
2023/11/22 09:10:13;;;;;;;5.63;5.13;;;4.20;63.90;;;;;;5032194;28;20672;-55
2023/11/22 09:12:40;;;;;;;6.20;5.60;;;4.20;65.20;;;;;;5016440;28;20281;-55
2023/11/22 09:15:09;;;;;;;6.00;5.50;;;4.20;65.10;;;;;;5012952;28;20234;-51
2023/11/22 09:17:35;;;;;;;5.80;5.30;;;4.30;63.90;;;;;;5031697;28;20712;-53
2023/11/22 09:20:02;;;;;;;6.10;5.27;;;4.30;64.00;;;;;;5029803;28;20211;-54
2023/11/22 09:22:29;;;;;;;6.77;6.07;;;4.30;64.90;;;;;;5023094;28;20214;-51
2023/11/22 09:24:56;;;;;;;6.00;5.50;;;4.30;63.90;;;;;;5026865;28;20720;-54
2023/11/22 09:27:22;;;;;;;6.57;5.97;;;4.40;64.60;;;;;;5025122;28;20289;-52
2023/11/22 09:29:49;;;;;;;6.30;5.80;;;4.30;63.50;;;;;;5027340;28;20210;-55
2023/11/22 09:32:16;;;;;;;5.63;5.23;;;4.20;63.50;;;;;;5025907;28;20633;-53
2023/11/22 09:34:44;;;;;;;5.17;4.77;;;4.20;62.30;;;;;;5026416;28;20222;-53
2023/11/22 09:37:10;;;;;;;6.97;4.83;;;4.10;62.00;;;;;;5024323;28;20668;-50
2023/11/22 09:39:37;;;;;;;5.70;5.20;;;3.90;62.60;;;;;;5027411;28;20229;-52
2023/11/22 09:42:05;;;;;;;5.00;4.60;;;3.90;64.60;;;;;;5019882;28;20286;-53
2023/11/22 09:44:31;;;;;;;6.10;5.53;;;4.00;64.30;;;;;;5024017;28;20202;-57
2023/11/22 09:46:58;;;;;;;5.73;5.23;;;4.20;64.70;;;;;;5028759;28;20206;-57
2023/11/22 09:49:24;;;;;;;6.97;4.90;;;4.10;63.70;;;;;;5027712;28;20214;-57
2023/11/22 09:51:51;;;;;;;5.37;4.87;;;4.30;63.80;;;;;;5025949;28;20636;-53
2023/11/22 09:54:18;;;;;;;5.90;5.10;;;4.20;62.60;;;;;;5024339;28;20209;-56
2023/11/22 09:56:50;;;;;;;5.17;4.67;;;;;;;;;;5021478;28;20232;-56
2023/11/22 09:59:16;;;;;;;5.30;4.80;;;5.10;99.70;;;;;;5011164;28;20242;-56
2023/11/22 10:01:43;;;;;;;5.63;5.03;;;4.40;61.20;;;;;;5016821;28;20323;-53
2023/11/22 10:04:09;;;;;;;5.20;4.70;;;4.30;63.00;;;;;;5017183;28;20203;-56
2023/11/22 10:06:38;;;;;;;5.60;5.10;;;4.30;62.20;;;;;;5020097;28;20234;-54
2023/11/22 10:09:07;;;;;;;5.40;4.90;;;4.30;63.40;;;;;;5012924;28;20674;-56
2023/11/22 10:11:35;;;;;;;5.43;4.80;;;4.30;63.70;;;;;;5023630;28;20202;-51
2023/11/22 10:14:02;;;;;;;5.20;4.70;;;4.40;62.20;;;;;;5019973;28;20631;-53
2023/11/22 10:16:28;;;;;;;5.67;5.10;;;4.40;61.70;;;;;;5024561;28;20285;-52
2023/11/22 10:18:54;;;;;;;5.33;4.93;;;4.40;61.80;;;;;;5020190;28;20306;-53
2023/11/22 10:21:22;;;;;;;6.03;4.83;;;4.40;62.30;;;;;;5015738;28;20238;-56
2023/11/22 10:23:48;;;;;;;5.60;5.10;;;4.40;61.50;;;;;;5018465;28;20242;-53
2023/11/22 10:26:16;;;;;;;5.00;4.60;;;4.40;61.10;;;;;;5019727;28;20280;-56
2023/11/22 10:28:43;;;;;;;5.60;5.03;;;4.20;60.10;;;;;;5019040;28;20650;-57
2023/11/22 10:31:09;;;;;;;5.40;4.90;;;4.10;59.90;;;;;;5016462;28;20301;-56
2023/11/22 10:33:36;;;;;;;4.77;4.37;;;4.10;60.20;;;;;;5014156;28;20213;-54
2023/11/22 10:36:02;;;;;;;8.53;4.60;;;4.20;60.70;;;;;;5016272;28;20305;-54
2023/11/22 10:38:29;;;;;;;5.07;4.57;;;4.30;59.40;;;;;;5021783;28;20309;-52
2023/11/22 10:40:58;;;;;;;5.13;4.63;;;4.40;59.70;;;;;;5022867;28;20651;-53
2023/11/22 10:43:26;;;;;;;4.80;4.40;;;4.60;59.30;;;;;;5018649;28;20211;-57
2023/11/22 10:45:53;;;;;;;6.03;4.43;;;4.50;58.00;;;;;;5013510;28;20285;-57
2023/11/22 10:48:21;;;;;;;4.07;3.77;;;4.60;58.50;;;;;;5014112;28;20199;-54
2023/11/22 10:50:47;;;;;;;4.63;4.30;;;4.60;57.20;;;;;;5011459;28;20206;-54
2023/11/22 10:53:14;;;;;;;5.10;4.60;;;4.40;57.20;;;;;;5021579;28;20386;-55
2023/11/22 10:55:40;;;;;;;5.20;4.80;;;4.40;57.90;;;;;;5020106;28;20269;-50
2023/11/22 10:58:06;;;;;;;5.00;4.60;;;4.50;58.60;;;;;;5024113;28;20750;-55
2023/11/22 11:00:33;;;;;;;4.43;4.03;;;4.50;58.40;;;;;;5018509;28;20207;-54
2023/11/22 11:02:59;;;;;;;5.27;4.87;;;4.50;57.20;;;;;;5019076;28;20207;-53
2023/11/22 11:05:28;;;;;;;5.57;4.87;;;4.40;57.00;;;;;;5009574;28;20224;-54
2023/11/22 11:07:54;;;;;;;4.40;4.10;;;4.40;57.80;;;;;;5022295;28;20415;-56
2023/11/22 11:10:22;;;;;;;5.53;4.93;;;4.40;57.80;;;;;;5011401;28;20198;-55
2023/11/22 11:12:48;;;;;;;4.57;4.27;;;4.50;57.40;;;;;;5011776;28;20220;-53
2023/11/22 11:15:15;;;;;;;4.47;4.17;;;4.50;57.90;;;;;;5025040;28;20792;-52
2023/11/22 11:17:41;;;;;;;4.27;3.87;;;4.60;57.80;;;;;;5019862;28;20237;-53
2023/11/22 11:20:08;;;;;;;5.13;4.60;;;4.60;57.40;;;;;;5025929;28;20643;-52
2023/11/22 11:22:35;;;;;;;4.67;4.30;;;4.60;57.40;;;;;;5029071;28;20218;-55
2023/11/22 11:25:02;;;;;;;5.20;4.80;;;4.60;57.10;;;;;;5015578;28;20226;-59
2023/11/22 11:27:29;;;;;;;5.53;5.03;;;4.50;57.60;;;;;;5019841;28;20202;-55
2023/11/22 11:29:55;;;;;;;4.30;4.00;;;4.60;58.30;;;;;;5024099;28;20206;-54
2023/11/22 11:32:22;;;;;;;4.57;4.10;;;4.50;57.10;;;;;;5026823;28;20288;-55
2023/11/22 11:34:49;;;;;;;4.77;4.37;;;4.60;57.30;;;;;;5028661;28;20739;-58
2023/11/22 11:37:16;;;;;;;4.43;4.13;;;4.40;56.80;;;;;;5028353;28;20484;-57
2023/11/22 11:39:42;;;;;;;4.60;4.20;;;4.30;57.30;;;;;;5018901;28;20354;-54
2023/11/22 11:42:08;;;;;;;4.60;4.30;;;4.30;58.40;;;;;;5030406;28;20217;-58
2023/11/22 11:44:35;;;;;;;4.47;4.17;;;4.50;58.40;;;;;;5014803;28;20203;-57
2023/11/22 11:47:01;;;;;;;4.43;4.03;;;4.50;57.40;;;;;;5028606;28;20294;-57
2023/11/22 11:49:29;;;;;;;5.03;4.63;;;4.50;57.20;;;;;;5022677;28;20297;-53
2023/11/22 11:51:55;;;;;;;4.67;4.27;;;4.50;57.90;;;;;;5025148;28;20207;-54
2023/11/22 11:54:22;;;;;;;4.23;3.87;;;4.50;57.40;;;;;;5023276;28;20210;-56
2023/11/22 11:56:51;;;;;;;5.53;4.80;;;4.50;56.60;;;;;;5022032;28;20590;-53
2023/11/22 11:59:17;;;;;;;5.63;4.97;;;4.60;57.70;;;;;;5028280;28;20671;-55
2023/11/22 12:01:44;;;;;;;4.83;4.43;;;4.60;57.00;;;;;;5026260;28;20795;-55
2023/11/22 12:04:10;;;;;;;4.97;4.57;;;4.60;56.80;;;;;;5028695;28;20580;-55
2023/11/22 12:06:39;;;;;;;4.67;4.30;;;4.60;57.10;;;;;;5017757;28;20305;-52
2023/11/22 12:09:06;;;;;;;4.40;4.00;;;4.50;57.40;;;;;;5022357;28;20205;-52
2023/11/22 12:11:32;;;;;;;5.03;4.63;;;4.50;56.90;;;;;;5022763;28;20290;-55
2023/11/22 12:13:58;;;;;;;5.03;4.63;;;4.50;56.70;;;;;;5028366;28;20213;-51
2023/11/22 12:16:26;;;;;;;5.00;4.60;;;4.50;57.20;;;;;;5021403;28;20310;-55
2023/11/22 12:18:53;;;;;;;4.53;4.03;;;4.50;57.30;;;;;;5022124;28;20224;-54
2023/11/22 12:21:19;;;;;;;4.33;3.93;;;4.60;57.10;;;;;;5024315;28;20214;-54
2023/11/22 12:23:46;;;;;;;4.17;3.87;;;4.50;56.60;;;;;;5021959;28;20222;-53
2023/11/22 12:26:13;;;;;;;5.60;4.13;;;4.50;55.40;;;;;;5029873;28;20704;-54
2023/11/22 12:28:39;;;;;;;4.43;4.03;;;4.50;55.60;;;;;;5023330;28;20649;-53
2023/11/22 12:31:06;;;;;;;7.13;4.67;;;4.50;55.50;;;;;;5025055;28;20463;-52
2023/11/22 12:33:32;;;;;;;4.73;4.30;;;4.50;57.10;;;;;;5025191;28;20217;-53
2023/11/22 12:35:59;;;;;;;4.60;4.20;;;4.50;56.70;;;;;;5015434;28;20226;-54
2023/11/22 12:38:26;;;;;;;5.00;4.53;;;4.50;56.70;;;;;;5029515;28;20273;-56
2023/11/22 12:40:53;;;;;;;4.97;4.57;;;4.50;56.60;;;;;;5019305;28;20217;-51
2023/11/22 12:43:20;;;;;;;5.40;4.97;;;4.50;56.20;;;;;;5030656;28;20213;-53
2023/11/22 12:45:46;;;;;;;5.30;4.90;;;4.50;56.80;;;;;;5025207;28;20342;-50
2023/11/22 12:48:13;;;;;;;4.87;4.47;;;4.60;56.90;;;;;;5033899;28;20195;-51
2023/11/22 12:50:39;;;;;;;5.63;5.07;;;4.50;56.40;;;;;;5032257;28;20298;-49
2023/11/22 12:53:06;;;;;;;5.03;4.57;;;4.50;56.70;;;;;;5027758;28;20652;-52